Time;durP1;ratioP1;P1;durP2;ratioP2;P2;SDS_P1;SDS_P2;PMS_P1;PMS_P2;Temp;Humidity;BMP_temperature;BMP_pressure;BME280_temperature;BME280_humidity;BME280_pressure;Samples;Min_cycle;Max_cycle;Signal;HPM_P1;HPM_P2
2022/04/10 00:00:42;;;;;;;11.10;6.60;;;5.00;99.90;;;;;;5098082;28;20020;-77
2022/04/10 00:03:08;;;;;;;9.77;6.30;;;5.00;99.90;;;;;;5096747;28;20082;-76
2022/04/10 00:05:34;;;;;;;10.60;5.32;;;5.00;99.90;;;;;;5098186;28;20065;-77
2022/04/10 00:08:00;;;;;;;10.38;6.13;;;5.00;99.90;;;;;;5098019;28;20085;-76
2022/04/10 00:10:26;;;;;;;11.40;6.45;;;4.90;99.90;;;;;;5098092;28;20012;-77
2022/04/10 00:12:52;;;;;;;13.98;5.95;;;4.90;99.90;;;;;;5097781;28;20031;-77
2022/04/10 00:15:18;;;;;;;10.77;6.70;;;4.80;99.90;;;;;;5097975;28;20028;-76
2022/04/10 00:17:44;;;;;;;9.13;5.97;;;4.80;99.90;;;;;;5096316;28;20028;-76
2022/04/10 00:20:11;;;;;;;7.75;6.53;;;4.80;99.90;;;;;;5096471;28;20031;-76
2022/04/10 00:22:44;;;;;;;11.70;7.93;;;4.80;99.90;;;;;;5084521;28;20020;-76
2022/04/10 00:25:12;;;;;;;12.05;7.05;;;4.70;99.90;;;;;;5097761;28;20095;-76
2022/04/10 00:27:42;;;;;;;10.02;6.32;;;4.70;99.90;;;;;;5097665;28;20032;-76
2022/04/10 00:30:10;;;;;;;9.30;6.47;;;4.70;99.90;;;;;;5097363;28;20032;-76
2022/04/10 00:32:36;;;;;;;11.80;7.30;;;4.70;99.90;;;;;;5097557;28;20057;-76
2022/04/10 00:35:02;;;;;;;8.90;6.68;;;4.70;99.90;;;;;;5097221;28;20020;-76
2022/04/10 00:37:28;;;;;;;7.13;6.03;;;4.60;99.90;;;;;;5098332;28;20024;-77
2022/04/10 00:39:54;;;;;;;13.38;7.45;;;4.50;99.90;;;;;;5097256;28;20024;-77
2022/04/10 00:42:20;;;;;;;9.75;6.70;;;4.50;99.90;;;;;;5097101;28;20020;-77
2022/04/10 00:44:47;;;;;;;9.00;5.95;;;4.50;99.90;;;;;;5096965;28;20153;-78
2022/04/10 00:47:13;;;;;;;8.45;7.20;;;4.40;99.90;;;;;;5095638;28;20028;-77
2022/04/10 00:49:40;;;;;;;9.82;6.63;;;4.40;99.90;;;;;;5095903;28;20493;-77
2022/04/10 00:52:07;;;;;;;8.40;5.72;;;4.30;99.90;;;;;;5097288;28;20119;-77
2022/04/10 00:54:34;;;;;;;10.55;5.60;;;4.30;99.90;;;;;;5095807;28;20035;-77
2022/04/10 00:57:01;;;;;;;8.60;6.03;;;4.20;99.90;;;;;;5095975;28;20058;-77
2022/04/10 00:59:28;;;;;;;8.35;6.00;;;4.20;99.90;;;;;;5096288;28;20057;-77
2022/04/10 01:01:55;;;;;;;7.55;5.80;;;4.20;99.90;;;;;;5097154;28;20020;-77
2022/04/10 01:04:21;;;;;;;8.27;5.90;;;4.10;99.90;;;;;;5097440;28;20027;-77
2022/04/10 01:06:48;;;;;;;12.25;6.40;;;4.10;99.90;;;;;;5096344;28;20381;-77
2022/04/10 01:09:15;;;;;;;10.48;6.72;;;4.10;99.90;;;;;;5095121;28;20097;-77
2022/04/10 01:11:41;;;;;;;6.60;6.00;;;4.10;99.90;;;;;;5096113;28;20028;-77
2022/04/10 01:14:12;;;;;;;13.85;7.00;;;4.10;99.90;;;;;;5096852;28;20081;-77
2022/04/10 01:16:39;;;;;;;9.70;6.85;;;4.00;99.90;;;;;;5095884;28;20081;-76
2022/04/10 01:19:05;;;;;;;10.85;6.10;;;3.90;99.90;;;;;;5096934;28;20024;-77
2022/04/10 01:21:33;;;;;;;10.73;6.97;;;3.90;99.90;;;;;;5097144;28;20496;-77
2022/04/10 01:23:59;;;;;;;8.20;6.28;;;3.90;99.90;;;;;;5096833;28;20030;-77
2022/04/10 01:26:27;;;;;;;22.45;7.20;;;3.80;99.90;;;;;;5095914;28;20452;-77
2022/04/10 01:29:02;;;;;;;10.93;6.75;;;3.80;99.90;;;;;;5096822;28;20047;-77
2022/04/10 01:31:31;;;;;;;9.93;7.20;;;3.70;99.90;;;;;;5095336;28;20404;-77
2022/04/10 01:33:59;;;;;;;11.63;7.22;;;3.70;99.90;;;;;;5096693;28;20020;-77
2022/04/10 01:36:27;;;;;;;11.25;6.63;;;3.70;99.90;;;;;;5095469;28;20024;-77
2022/04/10 01:38:55;;;;;;;9.23;7.28;;;3.70;99.90;;;;;;5096783;28;20031;-77
2022/04/10 01:41:22;;;;;;;8.45;6.53;;;3.60;99.90;;;;;;5095566;28;20028;-77
2022/04/10 01:43:49;;;;;;;13.02;7.57;;;3.60;99.90;;;;;;5096493;28;20020;-77
2022/04/10 01:46:16;;;;;;;9.30;6.85;;;3.60;99.90;;;;;;5096584;28;20063;-77
2022/04/10 01:48:42;;;;;;;9.30;7.15;;;3.50;99.90;;;;;;5095464;28;20027;-77
2022/04/10 01:51:09;;;;;;;12.32;7.38;;;3.50;99.90;;;;;;5096537;28;20096;-77
2022/04/10 01:53:35;;;;;;;9.20;6.30;;;3.50;99.90;;;;;;5096942;28;20024;-77
2022/04/10 01:56:02;;;;;;;8.63;7.35;;;3.50;99.90;;;;;;5098962;28;20032;-77
2022/04/10 01:58:30;;;;;;;12.38;7.50;;;3.50;99.90;;;;;;5098940;28;20020;-77
2022/04/10 02:00:56;;;;;;;11.70;7.05;;;3.30;99.90;;;;;;5100229;28;20016;-77
2022/04/10 02:03:22;;;;;;;12.68;7.45;;;3.30;99.90;;;;;;5100108;28;20024;-77
2022/04/10 02:05:48;;;;;;;14.05;7.75;;;3.30;99.90;;;;;;5100094;28;20028;-77
2022/04/10 02:08:14;;;;;;;12.18;7.35;;;3.30;99.90;;;;;;5099176;28;20084;-77
2022/04/10 02:10:40;;;;;;;8.88;6.72;;;3.30;99.90;;;;;;5100050;28;20063;-77
2022/04/10 02:13:09;;;;;;;9.77;7.15;;;3.30;99.90;;;;;;5099942;28;20016;-77
2022/04/10 02:15:37;;;;;;;7.30;6.60;;;3.30;99.90;;;;;;5099208;28;20020;-77
2022/04/10 02:18:03;;;;;;;11.85;7.18;;;3.30;99.90;;;;;;5099989;28;20042;-77
2022/04/10 02:20:29;;;;;;;8.23;7.20;;;3.30;99.90;;;;;;5100025;28;20020;-77
2022/04/10 02:22:54;;;;;;;11.18;7.20;;;3.20;99.90;;;;;;5100431;28;20103;-77
2022/04/10 02:25:20;;;;;;;9.05;6.80;;;3.20;99.90;;;;;;5100222;28;20064;-77
2022/04/10 02:27:46;;;;;;;8.63;6.75;;;3.20;99.90;;;;;;5099821;28;20016;-77
2022/04/10 02:30:12;;;;;;;12.18;6.63;;;3.10;99.90;;;;;;5099664;28;20028;-77
2022/04/10 02:32:40;;;;;;;9.93;6.93;;;3.10;99.90;;;;;;5099477;28;20024;-76
2022/04/10 02:35:07;;;;;;;9.00;6.40;;;3.00;99.90;;;;;;5099387;28;20016;-77
2022/04/10 02:37:32;;;;;;;12.45;6.93;;;3.00;99.90;;;;;;5099870;28;20016;-77
2022/04/10 02:39:58;;;;;;;8.18;6.90;;;3.00;99.90;;;;;;5099499;28;20031;-76
2022/04/10 02:42:24;;;;;;;9.07;7.07;;;3.00;99.90;;;;;;5099167;28;20039;-77
2022/04/10 02:44:50;;;;;;;10.15;7.07;;;3.00;99.90;;;;;;5099538;28;20024;-77
2022/04/10 02:47:18;;;;;;;9.18;6.80;;;2.90;99.90;;;;;;5081491;28;20055;-77
2022/04/10 02:49:43;;;;;;;10.25;6.95;;;2.90;99.90;;;;;;5099421;28;20403;-77
2022/04/10 02:52:09;;;;;;;10.90;6.70;;;2.90;99.90;;;;;;5098018;28;20023;-77
2022/04/10 02:54:36;;;;;;;9.45;7.20;;;2.90;99.90;;;;;;5099271;28;20023;-77
2022/04/10 02:57:02;;;;;;;10.35;7.45;;;2.80;99.90;;;;;;5099181;28;20012;-77
2022/04/10 02:59:27;;;;;;;8.70;6.82;;;2.80;99.90;;;;;;5097789;28;20049;-77
2022/04/10 03:01:53;;;;;;;7.68;6.85;;;2.80;99.90;;;;;;5097571;28;20492;-76
2022/04/10 03:04:19;;;;;;;10.07;7.95;;;2.80;99.90;;;;;;5097386;28;20028;-77
2022/04/10 03:06:45;;;;;;;10.80;7.22;;;2.80;99.90;;;;;;5099308;28;20084;-77
2022/04/10 03:09:11;;;;;;;10.27;7.25;;;2.80;99.90;;;;;;5097479;28;20506;-77
2022/04/10 03:11:37;;;;;;;13.02;6.72;;;2.70;99.90;;;;;;5097548;28;20040;-77
2022/04/10 03:14:03;;;;;;;8.50;6.90;;;2.70;99.90;;;;;;5098719;28;20487;-77
2022/04/10 03:16:29;;;;;;;6.90;6.22;;;2.60;99.90;;;;;;5097251;28;20027;-77
2022/04/10 03:18:55;;;;;;;7.57;6.75;;;2.50;99.90;;;;;;5098631;28;20396;-77
2022/04/10 03:21:21;;;;;;;12.43;6.68;;;2.50;99.90;;;;;;5097350;28;20048;-77
2022/04/10 03:23:47;;;;;;;8.95;6.55;;;2.50;99.90;;;;;;5097587;28;20547;-77
2022/04/10 03:26:12;;;;;;;9.52;7.25;;;2.50;99.90;;;;;;5098614;28;20085;-77
2022/04/10 03:28:38;;;;;;;9.00;6.90;;;2.60;99.90;;;;;;5096414;28;20024;-77
2022/04/10 03:31:04;;;;;;;11.60;7.03;;;2.50;99.90;;;;;;5086594;28;20024;-77
2022/04/10 03:33:30;;;;;;;9.63;7.13;;;2.50;99.90;;;;;;5096351;28;20024;-77
2022/04/10 03:35:56;;;;;;;8.65;6.90;;;2.40;99.90;;;;;;5097219;28;20093;-77
2022/04/10 03:38:22;;;;;;;10.02;6.95;;;2.40;99.90;;;;;;5098621;28;20099;-76
2022/04/10 03:40:48;;;;;;;9.10;7.45;;;2.40;99.90;;;;;;5097309;28;20024;-77
2022/04/10 03:43:14;;;;;;;9.60;7.55;;;2.40;99.90;;;;;;5096792;28;20028;-77
2022/04/10 03:45:40;;;;;;;7.63;6.82;;;2.30;99.90;;;;;;5096817;28;20070;-77
2022/04/10 03:48:07;;;;;;;8.93;7.28;;;2.30;99.90;;;;;;5097887;28;20401;-77
2022/04/10 03:50:34;;;;;;;13.75;7.63;;;2.20;99.90;;;;;;5098356;28;20073;-77
2022/04/10 03:53:00;;;;;;;11.40;6.93;;;2.20;99.90;;;;;;5098079;28;20361;-77
2022/04/10 03:55:26;;;;;;;8.20;6.95;;;2.20;99.90;;;;;;5097004;28;20037;-77
2022/04/10 03:57:52;;;;;;;10.98;7.25;;;2.10;99.90;;;;;;5096466;28;20043;-77
2022/04/10 04:00:21;;;;;;;16.20;7.72;;;2.10;99.90;;;;;;5098186;28;20020;-77
2022/04/10 04:02:47;;;;;;;11.70;8.32;;;2.10;99.90;;;;;;5096233;28;20028;-77
2022/04/10 04:05:13;;;;;;;9.63;7.70;;;2.10;99.90;;;;;;5096629;28;20581;-77
2022/04/10 04:07:40;;;;;;;10.20;7.70;;;2.20;99.90;;;;;;5097556;28;20098;-77
2022/04/10 04:10:07;;;;;;;7.57;6.88;;;2.20;99.90;;;;;;5098206;28;20103;-77
2022/04/10 04:12:34;;;;;;;10.82;6.93;;;2.20;99.90;;;;;;5097525;28;20032;-77
2022/04/10 04:15:01;;;;;;;8.30;7.60;;;2.20;99.90;;;;;;5097739;28;20390;-77
2022/04/10 04:17:26;;;;;;;8.98;7.32;;;2.30;99.90;;;;;;5096946;28;20024;-77
2022/04/10 04:19:53;;;;;;;7.82;7.13;;;2.30;99.90;;;;;;5096235;28;20376;-77
2022/04/10 04:22:19;;;;;;;10.65;7.70;;;2.30;99.90;;;;;;5097556;28;20103;-77
2022/04/10 04:24:45;;;;;;;11.88;7.22;;;2.30;99.90;;;;;;5096295;28;20020;-77
2022/04/10 04:27:12;;;;;;;7.65;6.95;;;2.30;99.90;;;;;;5096034;28;20020;-77
2022/04/10 04:29:38;;;;;;;8.60;6.72;;;2.40;99.90;;;;;;5087535;28;20126;-77
2022/04/10 04:32:05;;;;;;;11.80;6.90;;;2.40;99.90;;;;;;5094170;28;20042;-77
2022/04/10 04:34:30;;;;;;;7.57;6.80;;;2.40;99.90;;;;;;5096009;28;20035;-77
2022/04/10 04:36:56;;;;;;;8.45;6.55;;;2.40;99.90;;;;;;5095829;28;20028;-77
2022/04/10 04:39:23;;;;;;;8.55;7.22;;;2.40;99.90;;;;;;5095878;28;20106;-77
2022/04/10 04:41:48;;;;;;;9.75;7.28;;;2.40;99.90;;;;;;5097191;28;20028;-77
2022/04/10 04:44:15;;;;;;;8.57;7.70;;;2.40;99.90;;;;;;5097475;28;20046;-77
2022/04/10 04:46:41;;;;;;;10.90;6.80;;;2.40;99.90;;;;;;5096829;28;20153;-77
2022/04/10 04:49:07;;;;;;;10.43;6.82;;;2.40;99.90;;;;;;5097676;28;20023;-77
2022/04/10 04:51:36;;;;;;;8.88;7.07;;;2.40;99.90;;;;;;5095962;28;20085;-76
2022/04/10 04:54:03;;;;;;;7.03;6.32;;;2.40;99.90;;;;;;5097530;28;20114;-77
2022/04/10 04:56:29;;;;;;;12.27;7.20;;;2.40;99.90;;;;;;5097392;28;20103;-77
2022/04/10 04:58:55;;;;;;;8.88;7.32;;;2.40;99.90;;;;;;5096208;28;20074;-77
2022/04/10 05:01:21;;;;;;;7.63;6.60;;;2.40;99.90;;;;;;5097185;28;20602;-77
2022/04/10 05:03:47;;;;;;;9.23;6.57;;;2.30;99.90;;;;;;5096187;28;20028;-77
2022/04/10 05:06:13;;;;;;;6.97;6.38;;;2.30;99.90;;;;;;5097164;28;20076;-77
2022/04/10 05:08:39;;;;;;;7.18;6.47;;;2.20;99.90;;;;;;5094863;28;20035;-77
2022/04/10 05:11:08;;;;;;;9.43;7.10;;;2.10;99.90;;;;;;5095777;28;20031;-77
2022/04/10 05:13:35;;;;;;;9.98;6.78;;;2.10;99.90;;;;;;5097093;28;20024;-77
2022/04/10 05:16:01;;;;;;;10.70;7.60;;;2.10;99.90;;;;;;5095342;28;20025;-77
2022/04/10 05:18:27;;;;;;;9.38;6.40;;;2.10;99.90;;;;;;5095630;28;20028;-76
2022/04/10 05:20:53;;;;;;;8.38;6.60;;;2.00;99.90;;;;;;5095579;28;20024;-77
2022/04/10 05:23:20;;;;;;;8.40;7.43;;;2.00;99.90;;;;;;5095708;28;20020;-77
2022/04/10 05:25:47;;;;;;;9.68;7.25;;;2.00;99.90;;;;;;5095591;28;20024;-77
2022/04/10 05:28:14;;;;;;;9.13;8.07;;;2.00;99.90;;;;;;5096992;28;20024;-77
2022/04/10 05:30:41;;;;;;;8.00;7.20;;;2.00;99.90;;;;;;5100172;28;20014;-77
2022/04/10 05:33:07;;;;;;;13.13;7.07;;;1.90;99.90;;;;;;5099434;28;20028;-77
2022/04/10 05:35:33;;;;;;;10.65;7.95;;;1.90;99.90;;;;;;5100484;28;20028;-77
2022/04/10 05:37:59;;;;;;;10.88;7.20;;;2.00;99.90;;;;;;5099374;28;20028;-77
2022/04/10 05:40:25;;;;;;;8.57;7.68;;;2.00;99.90;;;;;;5100457;28;20042;-77
2022/04/10 05:42:51;;;;;;;10.10;7.75;;;2.00;99.90;;;;;;5100616;28;20391;-77
2022/04/10 05:45:17;;;;;;;13.85;7.40;;;2.00;99.90;;;;;;5100299;28;20048;-77
2022/04/10 05:47:43;;;;;;;8.65;6.85;;;2.10;99.90;;;;;;5100324;28;20028;-76
2022/04/10 05:50:11;;;;;;;8.15;6.72;;;2.10;99.90;;;;;;5098978;28;20165;-76
2022/04/10 05:52:48;;;;;;;8.25;7.43;;;2.20;99.90;;;;;;5099165;28;20499;-76
2022/04/10 05:55:16;;;;;;;7.68;6.15;;;2.20;99.90;;;;;;5100327;28;20032;-76
2022/04/10 05:57:42;;;;;;;9.45;8.32;;;2.20;99.90;;;;;;5100444;28;20016;-76
2022/04/10 06:00:13;;;;;;;9.05;7.45;;;2.30;99.90;;;;;;5099246;28;20106;-77
2022/04/10 06:02:40;;;;;;;8.90;7.38;;;2.40;99.90;;;;;;5099954;28;20081;-77
2022/04/10 06:05:07;;;;;;;11.85;7.68;;;2.50;99.90;;;;;;5100358;28;20476;-77
2022/04/10 06:07:32;;;;;;;12.18;8.05;;;2.60;99.90;;;;;;5100126;28;20032;-77
2022/04/10 06:09:59;;;;;;;10.60;8.18;;;2.70;99.90;;;;;;5099393;28;20031;-77
2022/04/10 06:12:25;;;;;;;10.45;7.15;;;2.80;99.90;;;;;;5098612;28;20089;-76
2022/04/10 06:14:51;;;;;;;8.43;6.65;;;2.80;99.90;;;;;;5098644;28;20031;-77
2022/04/10 06:17:17;;;;;;;8.43;7.07;;;2.90;99.90;;;;;;5099817;28;20024;-77
2022/04/10 06:19:43;;;;;;;8.80;7.70;;;3.00;99.90;;;;;;5098696;28;20020;-77
2022/04/10 06:22:09;;;;;;;10.88;7.82;;;3.20;99.90;;;;;;5100060;28;20027;-76
2022/04/10 06:24:35;;;;;;;12.80;7.28;;;3.30;99.90;;;;;;5100168;28;20384;-76
2022/04/10 06:27:02;;;;;;;9.77;7.35;;;3.50;99.90;;;;;;5098246;28;20097;-77
2022/04/10 06:29:28;;;;;;;9.38;7.20;;;3.70;99.90;;;;;;5099764;28;20052;-77
2022/04/10 06:31:54;;;;;;;8.13;7.32;;;3.80;99.90;;;;;;5098100;28;20035;-77
2022/04/10 06:34:21;;;;;;;9.93;7.15;;;4.00;99.90;;;;;;5098470;28;20034;-77
2022/04/10 06:36:47;;;;;;;7.43;6.60;;;4.20;99.90;;;;;;5098147;28;20054;-77
2022/04/10 06:39:16;;;;;;;10.50;7.90;;;4.30;99.90;;;;;;5098264;28;20028;-77
2022/04/10 06:41:43;;;;;;;8.43;7.50;;;4.40;99.90;;;;;;5098904;28;20039;-77
2022/04/10 06:44:09;;;;;;;10.20;6.43;;;4.50;99.90;;;;;;5098374;28;20080;-77
2022/04/10 06:46:35;;;;;;;8.15;6.18;;;4.70;99.90;;;;;;5097607;28;20506;-78
2022/04/10 06:49:01;;;;;;;7.88;6.78;;;4.90;99.90;;;;;;5099560;28;20027;-78
2022/04/10 06:51:27;;;;;;;8.60;6.28;;;5.10;99.90;;;;;;5097924;28;20118;-76
2022/04/10 06:53:53;;;;;;;9.38;6.82;;;5.30;99.90;;;;;;5091328;28;20453;-77
2022/04/10 06:56:19;;;;;;;9.80;6.40;;;5.30;99.90;;;;;;5095679;28;20074;-78
2022/04/10 06:58:45;;;;;;;10.02;6.18;;;5.30;99.90;;;;;;5097748;28;20020;-79
2022/04/10 07:01:10;;;;;;;10.43;5.75;;;5.40;99.90;;;;;;5097542;28;20462;-79
2022/04/10 07:03:36;;;;;;;9.25;5.47;;;5.50;99.90;;;;;;5094597;28;20032;-79
2022/04/10 07:06:02;;;;;;;5.70;5.03;;;5.50;99.90;;;;;;5098842;28;20040;-77
2022/04/10 07:08:29;;;;;;;6.03;5.15;;;5.70;99.90;;;;;;5099453;28;20020;-77
2022/04/10 07:10:55;;;;;;;8.48;5.63;;;5.80;99.90;;;;;;5096055;28;20036;-77
2022/04/10 07:13:22;;;;;;;6.50;4.40;;;5.90;99.90;;;;;;5097999;28;20072;-77
2022/04/10 07:15:52;;;;;;;5.60;4.97;;;6.00;99.90;;;;;;5090166;28;20028;-79
2022/04/10 07:18:19;;;;;;;11.10;5.68;;;6.10;99.90;;;;;;5076894;28;20044;-78
2022/04/10 07:20:45;;;;;;;8.27;4.97;;;6.30;99.90;;;;;;5088273;28;20125;-78
2022/04/10 07:25:56;;;;;;;12.23;5.05;;;6.50;99.90;;;;;;5098299;28;20039;-79
2022/04/10 07:28:22;;;;;;;6.75;5.00;;;6.50;99.90;;;;;;5097863;28;20016;-78
2022/04/10 07:30:48;;;;;;;7.18;4.40;;;6.60;99.90;;;;;;5097602;28;20137;-78
2022/04/10 07:33:15;;;;;;;6.07;5.13;;;6.70;99.90;;;;;;5097578;28;20082;-77
2022/04/10 07:35:42;;;;;;;10.00;4.75;;;6.90;99.90;;;;;;5098388;28;20116;-78
2022/04/10 07:38:08;;;;;;;6.30;4.20;;;7.10;99.90;;;;;;5098495;28;20056;-78
2022/04/10 07:40:36;;;;;;;7.30;4.47;;;7.20;99.90;;;;;;5097230;28;20020;-76
2022/04/10 07:43:02;;;;;;;6.53;4.28;;;7.30;99.90;;;;;;5098535;28;20023;-77
2022/04/10 07:48:12;;;;;;;7.57;4.53;;;7.60;99.90;;;;;;5098640;28;20102;-77
2022/04/10 07:50:38;;;;;;;9.57;3.97;;;7.70;99.90;;;;;;5096950;28;20024;-76
2022/04/10 07:53:04;;;;;;;5.47;3.90;;;7.80;99.90;;;;;;5097705;28;20392;-77
2022/04/10 07:55:31;;;;;;;5.13;3.67;;;8.00;99.90;;;;;;5095692;28;20027;-78
2022/04/10 07:57:57;;;;;;;9.27;4.47;;;8.20;99.90;;;;;;5098321;28;20012;-76
2022/04/10 08:00:23;;;;;;;6.35;4.10;;;8.40;99.90;;;;;;5099149;28;20043;-76
2022/04/10 08:02:49;;;;;;;4.03;3.40;;;8.60;99.90;;;;;;5098053;28;20038;-76
2022/04/10 08:05:16;;;;;;;6.85;3.70;;;8.70;99.90;;;;;;5098159;28;20024;-76
2022/04/10 08:07:46;;;;;;;4.75;3.72;;;8.80;99.90;;;;;;5096476;28;20042;-76
2022/04/10 08:10:12;;;;;;;6.85;3.40;;;9.00;99.90;;;;;;5097009;28;20030;-79
2022/04/10 08:12:39;;;;;;;9.02;3.65;;;9.10;99.90;;;;;;5097237;28;20024;-79
2022/04/10 08:15:06;;;;;;;5.65;3.55;;;9.30;99.90;;;;;;5096864;28;20035;-80
2022/04/10 08:17:32;;;;;;;4.85;3.95;;;9.50;99.90;;;;;;5096074;28;20055;-79
2022/04/10 08:19:58;;;;;;;7.53;3.38;;;9.70;99.90;;;;;;5097675;28;20032;-79
2022/04/10 08:22:28;;;;;;;5.57;3.40;;;9.90;99.90;;;;;;5094891;28;20023;-81
2022/04/10 08:24:54;;;;;;;7.22;3.50;;;10.10;99.90;;;;;;5095158;28;20024;-80
2022/04/10 08:27:20;;;;;;;5.15;2.80;;;10.30;99.90;;;;;;5096128;28;20463;-78
2022/04/10 08:29:47;;;;;;;3.95;3.20;;;10.50;99.90;;;;;;5096247;28;20032;-78
2022/04/10 08:32:12;;;;;;;5.18;2.92;;;10.70;99.90;;;;;;5097052;28;20024;-78
2022/04/10 08:34:38;;;;;;;3.83;2.70;;;10.80;99.90;;;;;;5096185;28;20503;-79
2022/04/10 08:37:07;;;;;;;6.70;2.70;;;10.80;99.90;;;;;;5095614;28;20489;-77
2022/04/10 08:39:33;;;;;;;6.60;2.85;;;10.90;99.90;;;;;;5095513;28;20059;-78
2022/04/10 08:42:04;;;;;;;7.65;2.83;;;11.00;99.90;;;;;;5094210;28;20095;-78
2022/04/10 08:44:30;;;;;;;7.43;2.95;;;11.20;99.90;;;;;;5096826;28;20028;-78
2022/04/10 08:46:58;;;;;;;4.78;2.50;;;11.40;99.90;;;;;;5096539;28;20048;-77
2022/04/10 08:49:31;;;;;;;7.13;2.80;;;11.50;99.90;;;;;;5095763;28;20043;-77
2022/04/10 08:51:58;;;;;;;5.25;2.63;;;11.60;99.90;;;;;;5096620;28;20032;-77
2022/04/10 08:54:26;;;;;;;6.20;2.88;;;11.70;99.90;;;;;;5097110;28;20031;-78
2022/04/10 08:56:52;;;;;;;3.40;2.20;;;11.80;99.90;;;;;;5097164;28;20016;-80
2022/04/10 08:59:19;;;;;;;4.70;2.60;;;12.00;99.90;;;;;;5097360;28;20020;-81
2022/04/10 09:01:46;;;;;;;4.63;2.47;;;12.10;99.90;;;;;;5096049;28;20349;-80
2022/04/10 09:04:14;;;;;;;5.18;2.58;;;12.20;99.90;;;;;;5099361;28;20039;-77
2022/04/10 09:06:41;;;;;;;4.50;2.45;;;12.30;99.90;;;;;;5100161;28;20032;-78
2022/04/10 09:09:16;;;;;;;3.80;2.35;;;12.40;99.90;;;;;;5101204;28;20028;-77
2022/04/10 09:11:43;;;;;;;6.85;2.67;;;12.50;99.90;;;;;;5100237;28;20366;-75
2022/04/10 09:14:09;;;;;;;8.95;2.40;;;12.60;99.70;;;;;;5101053;28;20032;-77
2022/04/10 09:16:35;;;;;;;4.22;2.67;;;12.70;99.90;;;;;;5100275;28;20016;-76
2022/04/10 09:19:08;;;;;;;6.25;3.08;;;12.60;99.60;;;;;;5099430;28;20154;-78
2022/04/10 09:21:39;;;;;;;7.53;2.40;;;12.70;98.80;;;;;;5099959;28;20016;-76
2022/04/10 09:24:10;;;;;;;2.50;1.98;;;12.70;98.70;;;;;;5099130;28;20510;-76
2022/04/10 09:26:56;;;;;;;4.20;2.10;;;12.80;98.20;;;;;;5101022;28;20472;-77
2022/04/10 09:29:24;;;;;;;6.28;2.47;;;12.80;97.70;;;;;;5099618;28;20047;-78
2022/04/10 09:31:51;;;;;;;3.30;2.33;;;13.00;98.30;;;;;;5099215;28;20510;-78
2022/04/10 09:34:22;;;;;;;6.03;2.47;;;13.10;97.60;;;;;;5100718;28;20032;-77
2022/04/10 09:36:57;;;;;;;;;;;13.20;96.00;;;;;;5101024;28;20012;-78
2022/04/10 09:39:37;;;;;;;3.20;2.38;;;13.30;96.20;;;;;;5099460;28;19904;-77
2022/04/10 09:42:08;;;;;;;3.58;2.00;;;13.30;94.60;;;;;;5099171;28;20024;-76
2022/04/10 09:44:35;;;;;;;5.97;2.67;;;13.40;93.90;;;;;;5099096;28;20032;-76
2022/04/10 09:47:01;;;;;;;4.15;2.20;;;13.40;93.70;;;;;;5095382;28;20048;-82
2022/04/10 09:49:38;;;;;;;6.78;2.30;;;13.40;93.60;;;;;;5100930;28;20084;-77
2022/04/10 09:52:12;;;;;;;3.00;2.13;;;13.40;93.30;;;;;;5100305;28;20024;-76
2022/04/10 09:54:46;;;;;;;5.15;2.25;;;13.60;93.70;;;;;;5100054;28;20035;-78
2022/04/10 09:57:14;;;;;;;5.88;2.30;;;13.60;93.70;;;;;;5100291;28;20577;-77
2022/04/10 09:59:43;;;;;;;4.68;2.10;;;13.70;92.70;;;;;;5097660;28;20039;-78
2022/04/10 10:02:13;;;;;;;7.55;2.53;;;13.80;92.60;;;;;;5079918;28;20384;-76
2022/04/10 10:04:41;;;;;;;4.22;2.35;;;13.80;92.10;;;;;;5080813;28;20052;-78
2022/04/10 10:07:16;;;;;;;4.30;2.10;;;13.80;92.80;;;;;;5078365;28;20028;-78
2022/04/10 10:09:42;;;;;;;7.10;1.95;;;14.00;93.10;;;;;;5080396;28;20031;-77
2022/04/10 10:12:09;;;;;;;6.55;2.42;;;14.00;91.90;;;;;;5079045;28;20052;-77
2022/04/10 10:14:36;;;;;;;7.13;2.55;;;14.10;90.70;;;;;;5080201;28;20111;-78
2022/04/10 10:17:05;;;;;;;2.75;1.73;;;14.10;91.80;;;;;;5076252;28;20031;-78
2022/04/10 10:19:35;;;;;;;3.65;2.28;;;14.10;90.10;;;;;;5095495;28;20384;-76
2022/04/10 10:22:03;;;;;;;4.00;1.95;;;14.10;91.30;;;;;;5096424;28;20107;-78
2022/04/10 10:24:54;;;;;;;2.95;1.95;;;14.20;91.50;;;;;;5090835;28;20025;-78
2022/04/10 10:27:58;;;;;;;2.85;1.80;;;14.20;90.60;;;;;;5086278;28;20024;-78
2022/04/10 10:30:34;;;;;;;4.78;1.92;;;14.30;90.40;;;;;;5101430;28;20040;-77
2022/04/10 10:33:15;;;;;;;6.05;2.00;;;14.40;90.70;;;;;;5096309;28;20392;-76
2022/04/10 10:35:44;;;;;;;5.90;1.88;;;14.40;89.20;;;;;;5097645;28;20069;-77
2022/04/10 10:38:27;;;;;;;4.13;2.17;;;14.50;89.90;;;;;;5097145;28;20028;-78
2022/04/10 10:41:09;;;;;;;4.70;2.38;;;14.60;89.70;;;;;;5099430;28;20031;-77
2022/04/10 10:43:35;;;;;;;2.90;2.03;;;14.60;89.50;;;;;;5097096;28;20032;-77
2022/04/10 10:46:01;;;;;;;6.72;2.22;;;14.60;87.80;;;;;;5098284;28;20044;-78
2022/04/10 10:48:41;;;;;;;5.75;2.38;;;14.60;88.10;;;;;;5099247;28;20032;-78
2022/04/10 10:51:09;;;;;;;3.25;2.25;;;14.70;88.10;;;;;;5096838;28;20489;-78
2022/04/10 10:53:44;;;;;;;6.15;2.47;;;14.70;86.90;;;;;;5099094;28;20028;-78
2022/04/10 10:56:31;;;;;;;3.95;2.00;;;14.70;87.40;;;;;;5096909;28;20035;-78
2022/04/10 10:59:22;;;;;;;5.28;2.17;;;14.80;87.80;;;;;;5099170;28;20038;-78
2022/04/10 11:01:59;;;;;;;4.32;2.22;;;14.80;86.90;;;;;;5094519;28;20024;-78
2022/04/10 11:04:29;;;;;;;3.63;2.10;;;14.90;88.70;;;;;;5095475;28;20126;-80
2022/04/10 11:07:18;;;;;;;5.57;2.22;;;15.00;88.40;;;;;;5097486;28;20036;-79
2022/04/10 11:09:54;;;;;;;4.07;2.42;;;15.10;88.00;;;;;;5096896;28;20089;-80
2022/04/10 11:12:34;;;;;;;6.43;2.55;;;15.20;88.70;;;;;;5098874;28;20028;-78
2022/04/10 11:15:30;;;;;;;3.22;2.30;;;15.40;87.00;;;;;;5090991;28;20094;-79
2022/04/10 11:18:02;;;;;;;3.47;2.17;;;15.30;86.10;;;;;;5087458;28;20148;-79
2022/04/10 11:20:28;;;;;;;3.53;2.83;;;15.40;86.40;;;;;;5098648;28;20039;-79
2022/04/10 11:22:54;;;;;;;5.57;2.20;;;15.50;87.60;;;;;;5097429;28;20016;-78
2022/04/10 11:25:38;;;;;;;6.15;2.00;;;15.60;85.30;;;;;;5097696;28;20032;-78
2022/04/10 11:28:07;;;;;;;6.60;2.35;;;15.60;87.50;;;;;;5097711;28;20028;-78
2022/04/10 11:30:38;;;;;;;4.32;1.90;;;15.60;86.60;;;;;;5084514;28;20039;-79
2022/04/10 11:33:09;;;;;;;4.03;2.13;;;15.60;85.70;;;;;;5097068;28;20028;-79
2022/04/10 11:35:40;;;;;;;7.63;2.10;;;15.60;85.20;;;;;;5098221;28;20032;-80
2022/04/10 11:38:15;;;;;;;4.00;1.98;;;15.60;84.30;;;;;;5098647;28;20023;-78
2022/04/10 11:40:47;;;;;;;2.70;1.70;;;15.60;84.70;;;;;;5097570;28;20024;-80
2022/04/10 11:43:16;;;;;;;4.60;2.33;;;15.60;84.20;;;;;;5098359;28;20045;-78
2022/04/10 11:45:43;;;;;;;4.63;2.03;;;15.70;85.20;;;;;;5097782;28;20059;-78
2022/04/10 11:48:09;;;;;;;2.95;1.90;;;15.70;82.90;;;;;;5098166;28;20979;-79
2022/04/10 11:50:37;;;;;;;5.97;2.22;;;15.80;84.90;;;;;;5098366;28;20027;-79
2022/04/10 11:53:05;;;;;;;2.63;1.50;;;15.80;82.80;;;;;;5096793;28;20024;-77
2022/04/10 11:55:42;;;;;;;3.40;2.00;;;15.80;82.50;;;;;;5097679;28;20032;-79
2022/04/10 11:58:17;;;;;;;2.70;1.60;;;15.80;81.20;;;;;;5096593;28;20016;-80
2022/04/10 12:00:53;;;;;;;3.92;2.10;;;15.90;81.20;;;;;;5096607;28;20038;-79
2022/04/10 12:03:20;;;;;;;4.95;1.90;;;16.10;79.70;;;;;;5098130;28;20020;-79
2022/04/10 12:05:47;;;;;;;3.65;2.10;;;16.00;83.30;;;;;;5097917;28;20388;-78
2022/04/10 12:08:13;;;;;;;6.85;1.85;;;16.20;81.80;;;;;;5096629;28;20028;-80
2022/04/10 12:10:40;;;;;;;8.13;1.73;;;16.20;80.10;;;;;;5096525;28;20455;-79
2022/04/10 12:13:09;;;;;;;4.38;2.03;;;16.30;81.50;;;;;;5097785;28;20088;-77
2022/04/10 12:15:35;;;;;;;2.72;1.70;;;16.30;83.30;;;;;;5096008;28;20036;-77
2022/04/10 12:18:05;;;;;;;4.80;1.60;;;16.40;81.20;;;;;;5096470;28;20026;-80
2022/04/10 12:20:32;;;;;;;10.63;2.17;;;16.60;81.80;;;;;;5097620;28;20518;-81
2022/04/10 12:22:58;;;;;;;5.50;1.98;;;16.60;83.20;;;;;;5097876;28;20043;-80
2022/04/10 12:25:25;;;;;;;3.10;1.67;;;16.70;84.20;;;;;;5097271;28;20066;-77
2022/04/10 12:27:51;;;;;;;2.67;1.50;;;16.80;81.80;;;;;;5097678;28;20073;-80
2022/04/10 12:30:18;;;;;;;7.72;1.85;;;16.80;81.30;;;;;;5083717;28;20028;-80
2022/04/10 12:32:44;;;;;;;3.53;1.73;;;16.80;78.50;;;;;;5097286;28;20032;-81
2022/04/10 12:35:14;;;;;;;6.43;2.55;;;16.90;80.00;;;;;;5097256;28;20024;-81
2022/04/10 12:37:47;;;;;;;6.60;1.77;;;17.00;79.30;;;;;;5085343;28;20027;-79
2022/04/10 12:40:13;;;;;;;3.58;1.85;;;17.00;80.80;;;;;;5097113;28;20035;-78
2022/04/10 12:42:42;;;;;;;7.40;1.98;;;17.10;80.30;;;;;;5097609;28;20020;-77
2022/04/10 12:45:11;;;;;;;2.83;1.80;;;17.00;77.10;;;;;;5097295;28;20050;-77
2022/04/10 12:47:47;;;;;;;3.78;2.03;;;17.10;76.50;;;;;;5095780;28;20020;-77
2022/04/10 12:50:15;;;;;;;2.22;1.45;;;17.20;78.70;;;;;;5096011;28;20036;-78
2022/04/10 12:52:42;;;;;;;4.05;2.20;;;17.20;80.30;;;;;;5097294;28;20384;-77
2022/04/10 12:55:38;;;;;;;5.40;1.92;;;17.20;80.80;;;;;;5097160;28;20393;-78
2022/04/10 12:58:07;;;;;;;1.98;1.50;;;17.40;78.50;;;;;;5084455;28;20050;-78
2022/04/10 13:00:35;;;;;;;3.63;2.10;;;17.40;78.60;;;;;;5095566;28;20024;-79